Time;durP1;ratioP1;P1;durP2;ratioP2;P2;SDS_P1;SDS_P2;PMS_P1;PMS_P2;Temp;Humidity;BMP_temperature;BMP_pressure;BME280_temperature;BME280_humidity;BME280_pressure;Samples;Min_cycle;Max_cycle;Signal;HPM_P1;HPM_P2
2022/11/10 00:00:04;;;;;;;7.35;4.70;;;;;;;12.98;88.85;99892.28;341904;28;1231;-78
2022/11/10 00:00:17;;;;;;;7.15;4.80;;;;;;;12.98;88.83;99892.28;342487;28;1892;-78
2022/11/10 00:00:29;;;;;;;7.45;4.97;;;;;;;12.98;88.86;99887.91;342833;28;1115;-78
2022/11/10 00:00:41;;;;;;;7.10;4.75;;;;;;;13.02;88.74;99888.63;342510;28;1299;-78
2022/11/10 00:00:53;;;;;;;6.85;4.50;;;;;;;13.07;88.76;99891.91;343463;28;1089;-78
2022/11/10 00:01:07;;;;;;;8.93;4.70;;;;;;;12.97;88.64;99893.16;344745;28;1135;-78
2022/11/10 00:01:19;;;;;;;9.48;5.05;;;;;;;12.94;89.09;99894.16;345496;28;1328;-78
2022/11/10 00:01:31;;;;;;;9.10;4.95;;;;;;;12.96;89.09;99891.47;344941;28;2147;-77
2022/11/10 00:01:43;;;;;;;8.65;4.80;;;;;;;12.93;89.13;99896.81;344061;28;1127;-78
2022/11/10 00:01:55;;;;;;;9.13;4.82;;;;;;;12.95;89.02;99892.38;344118;28;1819;-76
2022/11/10 00:02:07;;;;;;;9.48;5.05;;;;;;;12.97;89.07;99896.63;345127;28;2018;-78
2022/11/10 00:02:19;;;;;;;8.27;4.85;;;;;;;12.95;89.12;99892.38;345287;28;1156;-77
2022/11/10 00:02:31;;;;;;;8.50;4.95;;;;;;;12.97;89.05;99895.78;344131;28;1020;-78
2022/11/10 00:02:43;;;;;;;8.48;4.88;;;;;;;12.95;89.15;99892.38;343540;28;2141;-78
2022/11/10 00:02:59;;;;;;;7.20;4.85;;;;;;;12.90;89.26;99899.56;344281;28;1977;-79
2022/11/10 00:03:11;;;;;;;8.02;4.75;;;;;;;12.95;89.11;99897.59;344098;28;1059;-78
2022/11/10 00:03:27;;;;;;;8.20;4.60;;;;;;;12.97;89.46;99895.78;342746;28;1637;-78
2022/11/10 00:03:39;;;;;;;8.15;4.50;;;;;;;12.99;89.17;99891.34;342087;28;2043;-77
2022/11/10 00:03:51;;;;;;;9.10;4.90;;;;;;;13.01;89.33;99897.34;342580;28;1775;-78
2022/11/10 00:04:03;;;;;;;10.48;5.00;;;;;;;13.03;89.22;99899.91;342877;28;1570;-78
2022/11/10 00:04:14;;;;;;;9.05;4.70;;;;;;;13.03;89.13;99895.53;342796;28;1074;-78
2022/11/10 00:04:26;;;;;;;8.93;4.78;;;;;;;13.06;89.06;99898.03;344141;28;1075;-78
2022/11/10 00:04:38;;;;;;;8.48;4.85;;;;;;;13.06;88.91;99891.94;343850;28;1919;-78
2022/11/10 00:04:50;;;;;;;7.35;4.80;;;;;;;13.07;88.98;99894.50;342534;28;1919;-78
2022/11/10 00:05:02;;;;;;;6.97;4.80;;;;;;;13.10;88.75;99899.63;342224;28;1791;-77
2022/11/10 00:05:15;;;;;;;8.23;4.80;;;;;;;13.09;88.80;99889.25;343063;28;1004;-77
2022/11/10 00:05:27;;;;;;;10.10;4.72;;;;;;;13.10;88.75;99891.78;341394;28;1730;-76
2022/11/10 00:05:39;;;;;;;9.85;4.53;;;;;;;13.12;88.54;99889.09;341605;28;1802;-78
2022/11/10 00:05:50;;;;;;;8.05;4.60;;;;;;;13.13;88.71;99896.88;343016;28;1887;-78
2022/11/10 00:06:04;;;;;;;7.70;4.82;;;;;;;13.16;88.66;99891.56;342671;28;1253;-77
2022/11/10 00:06:16;;;;;;;8.23;5.00;;;;;;;13.18;88.55;99896.72;342488;28;1121;-76
2022/11/10 00:06:28;;;;;;;8.38;4.80;;;;;;;13.21;88.59;99893.97;342620;28;1108;-78
2022/11/10 00:06:40;;;;;;;8.20;4.80;;;;;;;13.23;88.62;99891.31;342165;28;1818;-78
2022/11/10 00:06:52;;;;;;;6.75;4.72;;;;;;;13.23;88.38;99893.91;341542;28;2101;-78
2022/11/10 00:07:04;;;;;;;6.43;5.03;;;;;;;13.24;88.21;99893.88;342872;28;1053;-77
2022/11/10 00:07:16;;;;;;;6.10;4.90;;;;;;;13.21;88.18;99893.13;343920;28;1582;-77
2022/11/10 00:07:28;;;;;;;6.68;4.70;;;;;;;13.18;88.03;99889.72;344164;28;1030;-77
2022/11/10 00:07:41;;;;;;;8.10;4.80;;;;;;;13.23;88.09;99896.53;343838;28;1893;-77
2022/11/10 00:07:53;;;;;;;8.77;4.75;;;;;;;13.26;88.03;99894.66;343892;28;2112;-78
2022/11/10 00:08:08;;;;;;;7.63;4.82;;;;;;;13.28;87.98;99889.34;343976;28;1169;-79
2022/11/10 00:08:20;;;;;;;6.13;4.65;;;;;;;13.27;87.89;99892.88;343827;28;1934;-78
2022/11/10 00:08:33;;;;;;;5.75;4.30;;;;;;;13.25;87.81;99886.88;343151;28;722;-76
2022/11/10 00:08:45;;;;;;;7.85;4.63;;;;;;;13.24;87.74;99893.00;340972;28;1177;-78
2022/11/10 00:08:57;;;;;;;8.55;4.93;;;;;;;13.24;87.75;99899.09;342313;28;1211;-78
2022/11/10 00:09:09;;;;;;;8.95;5.00;;;;;;;13.24;87.66;99891.25;342263;28;1116;-77
2022/11/10 00:09:21;;;;;;;6.75;4.60;;;;;;;13.25;87.78;99905.16;343209;28;1225;-78
2022/11/10 00:09:33;;;;;;;6.57;4.50;;;;;;;13.21;87.76;99895.75;344139;28;1039;-77
2022/11/10 00:09:45;;;;;;;6.68;4.50;;;;;;;13.22;87.90;99900.03;341910;28;1694;-78
2022/11/10 00:09:57;;;;;;;7.95;4.60;;;;;;;13.22;87.89;99900.91;342393;28;902;-78
2022/11/10 00:10:09;;;;;;;7.80;4.60;;;;;;;13.17;87.85;99893.22;342710;28;1051;-78
2022/11/10 00:10:22;;;;;;;7.72;4.50;;;;;;;13.19;87.74;99895.78;343696;28;1169;-78
2022/11/10 00:10:55;;;;;;;6.97;4.30;;;;;;;13.18;87.99;99897.56;343947;28;1699;-76
2022/11/10 00:11:07;;;;;;;6.22;4.50;;;;;;;13.15;88.03;99895.06;342840;28;1070;-78
2022/11/10 00:11:19;;;;;;;5.95;4.63;;;;;;;13.20;87.87;99897.50;343564;28;1613;-78
2022/11/10 00:11:32;;;;;;;7.43;4.60;;;;;;;13.19;87.95;99901.00;345058;28;1741;-78
2022/11/10 00:11:44;;;;;;;8.40;4.72;;;;;;;13.23;87.86;99899.13;345417;28;1054;-78
2022/11/10 00:11:56;;;;;;;7.80;4.68;;;;;;;13.19;87.74;99901.84;344697;28;1497;-77
2022/11/10 00:12:08;;;;;;;8.07;4.78;;;;;;;13.13;87.79;99899.47;344998;28;1952;-76
2022/11/10 00:12:21;;;;;;;8.00;4.70;;;;;;;13.10;87.95;99897.00;345173;28;1483;-77
2022/11/10 00:12:34;;;;;;;7.93;4.38;;;;;;;13.12;87.88;99900.41;345152;28;1290;-78
2022/11/10 00:12:46;;;;;;;8.98;4.40;;;;;;;13.13;87.96;99902.09;344176;28;1302;-79
2022/11/10 00:13:00;;;;;;;9.30;4.80;;;;;;;13.15;87.88;99902.88;344404;28;1056;-78
2022/11/10 00:13:12;;;;;;;8.68;4.80;;;;;;;13.13;87.91;99907.31;345140;28;1022;-78
2022/11/10 00:13:29;;;;;;;8.82;4.72;;;;;;;13.14;88.03;99903.81;343921;28;1729;-78
2022/11/10 00:17:01;;;;;;;7.93;4.60;;;;;;;13.12;87.92;99903.03;345396;28;1628;-78
2022/11/10 00:17:13;;;;;;;7.75;4.85;;;;;;;13.13;88.05;99912.53;344126;28;1166;-78
2022/11/10 00:17:25;;;;;;;8.18;4.95;;;;;;;13.10;87.79;99907.44;343832;28;1693;-77
2022/11/10 00:17:37;;;;;;;7.93;5.15;;;;;;;13.08;88.20;99908.41;342180;28;1608;-77
2022/11/10 00:17:49;;;;;;;7.25;5.00;;;;;;;13.07;88.22;99906.72;342537;28;2037;-78
2022/11/10 00:18:02;;;;;;;7.68;4.90;;;;;;;13.09;88.25;99905.72;341882;28;1710;-76
2022/11/10 00:18:14;;;;;;;7.13;4.53;;;;;;;13.11;88.42;99903.06;342505;28;813;-78
2022/11/10 00:18:26;;;;;;;8.50;4.68;;;;;;;13.13;88.18;99907.31;342103;28;1591;-78
2022/11/10 00:18:38;;;;;;;8.32;4.75;;;;;;;13.17;88.14;99911.50;342395;28;1214;-78
2022/11/10 00:18:50;;;;;;;9.40;4.72;;;;;;;13.17;88.18;99903.66;341729;28;1694;-78
2022/11/10 00:19:01;;;;;;;8.80;4.60;;;;;;;13.19;88.09;99911.44;342330;28;2124;-78
2022/11/10 00:19:13;;;;;;;8.20;4.60;;;;;;;13.23;87.89;99906.97;339932;29;1772;-78
2022/11/10 00:19:26;;;;;;;7.85;4.63;;;;;;;13.22;87.71;99910.47;340786;29;1601;-78
2022/11/10 00:19:39;;;;;;;10.60;4.80;;;;;;;13.19;87.93;99909.69;341648;28;1117;-76
2022/11/10 00:19:51;;;;;;;10.07;4.50;;;;;;;13.19;87.83;99914.91;341843;28;1781;-78
2022/11/10 00:20:04;;;;;;;9.57;4.53;;;;;;;13.17;87.93;99906.28;342253;28;2389;-75
2022/11/10 00:20:16;;;;;;;8.75;4.40;;;;;;;13.21;87.91;99908.78;343314;28;1778;-78
2022/11/10 00:20:29;;;;;;;9.70;4.60;;;;;;;13.18;87.85;99913.22;344038;28;1023;-79
2022/11/10 00:20:40;;;;;;;10.35;4.50;;;;;;;13.15;87.81;99908.09;344399;28;1080;-77
2022/11/10 00:20:52;;;;;;;9.07;4.60;;;;;;;13.14;87.90;99911.63;344237;28;1016;-78
2022/11/10 00:21:10;;;;;;;8.68;4.38;;;;;;;13.14;88.01;99911.63;342546;28;1069;-78
2022/11/10 00:21:22;;;;;;;7.03;4.30;;;;;;;13.15;87.92;99910.72;343545;28;1333;-79
2022/11/10 00:21:35;;;;;;;6.35;4.50;;;;;;;13.12;88.01;99910.84;343832;28;1012;-78
2022/11/10 00:21:47;;;;;;;6.73;4.77;;;;;;;13.15;88.18;99915.09;343966;28;1181;-78
2022/11/10 00:22:00;;;;;;;8.73;4.97;;;;;;;13.15;88.18;99913.31;344036;28;1170;-78
2022/11/10 00:22:12;;;;;;;8.02;4.75;;;;;;;13.16;88.02;99909.81;343266;28;1688;-75
2022/11/10 00:22:24;;;;;;;6.88;4.60;;;;;;;13.20;88.08;99913.16;343297;28;1968;-79
2022/11/10 00:22:38;;;;;;;7.20;4.68;;;;;;;13.20;87.88;99910.56;343733;28;1000;-76
2022/11/10 00:22:50;;;;;;;8.27;4.72;;;;;;;13.19;87.90;99907.06;344039;28;1275;-78
2022/11/10 00:23:02;;;;;;;8.13;4.70;;;;;;;13.22;87.79;99910.47;343508;28;894;-79
2022/11/10 00:23:14;;;;;;;7.28;4.68;;;;;;;13.23;87.95;99912.19;344199;28;1616;-78
2022/11/10 00:23:26;;;;;;;8.48;5.03;;;;;;;13.26;87.83;99919.88;345627;28;1664;-79
2022/11/10 00:23:38;;;;;;;6.53;4.72;;;;;;;13.28;87.77;99918.06;343920;28;1719;-79
2022/11/10 00:23:50;;;;;;;6.40;4.65;;;;;;;13.23;87.58;99917.41;343879;28;1135;-78
2022/11/10 00:24:02;;;;;;;8.27;4.68;;;;;;;13.20;87.50;99918.38;344062;28;1286;-79
2022/11/10 00:24:14;;;;;;;9.00;4.80;;;;;;;13.24;87.40;99919.09;343726;28;1677;-78
2022/11/10 00:24:27;;;;;;;9.27;4.75;;;;;;;13.23;87.85;99913.03;343492;28;2059;-79
2022/11/10 00:24:39;;;;;;;7.63;4.60;;;;;;;13.25;87.70;99919.03;343739;28;1513;-78
2022/11/10 00:24:51;;;;;;;6.13;4.47;;;;;;;13.24;87.56;99914.75;344314;28;1420;-78
2022/11/10 00:25:04;;;;;;;7.07;4.63;;;;;;;13.25;87.19;99923.41;342903;28;1180;-78
2022/11/10 00:25:16;;;;;;;8.38;4.60;;;;;;;13.27;87.43;99912.00;342635;28;1280;-77
2022/11/10 00:25:28;;;;;;;8.02;4.50;;;;;;;13.26;87.67;99917.28;343973;28;1104;-78
2022/11/10 00:25:39;;;;;;;6.75;4.40;;;;;;;13.26;87.57;99917.28;344170;28;1179;-78
2022/11/10 00:25:51;;;;;;;7.18;4.30;;;;;;;13.22;87.12;99915.69;345357;28;1230;-79
2022/11/10 00:26:14;;;;;;;7.97;4.40;;;;;;;13.18;87.59;99920.22;344957;28;1215;-78
2022/11/10 00:26:26;;;;;;;9.40;4.82;;;;;;;13.16;87.85;99922.88;345428;28;1077;-78
2022/11/10 00:26:38;;;;;;;9.52;4.85;;;;;;;13.19;87.64;99921.88;345161;28;2174;-78
2022/11/10 00:26:50;;;;;;;8.35;4.68;;;;;;;13.15;87.81;99917.69;343847;28;1162;-79
2022/11/10 00:27:02;;;;;;;7.70;4.80;;;;;;;13.14;87.99;99924.69;343676;28;1076;-78
2022/11/10 00:27:14;;;;;;;7.43;4.70;;;;;;;13.15;87.73;99918.53;343831;28;1060;-78
2022/11/10 00:27:26;;;;;;;6.77;4.67;;;;;;;13.13;87.55;99915.16;343860;28;1350;-78
2022/11/10 00:27:38;;;;;;;8.52;4.40;;;;;;;13.11;87.91;99923.94;344074;28;911;-79
2022/11/10 00:27:50;;;;;;;9.68;4.45;;;;;;;13.11;87.95;99922.19;342000;28;1378;-79
2022/11/10 00:28:02;;;;;;;8.80;4.60;;;;;;;13.13;87.87;99917.75;341212;29;1097;-79
2022/11/10 00:28:14;;;;;;;6.53;4.63;;;;;;;13.08;88.05;99922.31;341468;29;855;-79
2022/11/10 00:28:29;;;;;;;7.13;4.47;;;;;;;13.11;87.96;99919.56;343552;28;1605;-76
2022/11/10 00:28:41;;;;;;;7.60;4.55;;;;;;;13.14;87.81;99924.69;343084;28;1099;-77
2022/11/10 00:28:54;;;;;;;8.55;4.57;;;;;;;13.16;87.87;99922.88;341472;29;1044;-78
2022/11/10 00:29:06;;;;;;;8.27;4.60;;;;;;;13.14;87.89;99919.47;341094;29;1094;-79
2022/11/10 00:29:18;;;;;;;6.95;4.55;;;;;;;13.15;88.06;99926.38;341288;28;1072;-78
2022/11/10 00:29:30;;;;;;;6.85;4.53;;;;;;;13.17;88.17;99919.34;343143;28;1139;-78
2022/11/10 00:29:42;;;;;;;7.67;4.60;;;;;;;13.18;88.02;99915.84;343423;28;1188;-78
2022/11/10 00:29:54;;;;;;;7.05;4.60;;;;;;;13.16;87.82;99924.63;344268;28;1060;-78
2022/11/10 00:30:06;;;;;;;7.65;4.88;;;;;;;13.13;87.82;99916.91;343782;28;1092;-78
2022/11/10 00:30:18;;;;;;;8.20;4.85;;;;;;;13.11;87.89;99922.19;343241;28;1274;-78
2022/11/10 00:30:30;;;;;;;8.55;4.80;;;;;;;13.11;87.86;99919.56;341384;28;1644;-75
2022/11/10 00:30:42;;;;;;;9.82;4.60;;;;;;;13.16;88.21;99922.88;341591;28;1223;-79
2022/11/10 00:30:58;;;;;;;10.25;4.70;;;;;;;13.12;88.08;99916.06;342236;28;869;-78
2022/11/10 00:31:11;;;;;;;9.00;4.63;;;;;;;13.14;87.88;99927.31;344041;28;1043;-77
2022/11/10 00:31:22;;;;;;;8.80;4.75;;;;;;;13.10;87.92;99924.84;343045;28;1205;-79
2022/11/10 00:31:37;;;;;;;9.55;4.75;;;;;;;13.13;88.14;99922.97;341746;28;1734;-78
2022/11/10 00:31:49;;;;;;;8.65;4.60;;;;;;;13.11;88.15;99923.94;341178;29;1012;-77
2022/11/10 00:32:01;;;;;;;8.80;4.97;;;;;;;13.10;88.20;99924.84;342645;28;1148;-78
2022/11/10 00:32:12;;;;;;;9.13;5.05;;;;;;;13.07;88.43;99923.22;343676;28;2306;-77
2022/11/10 00:32:24;;;;;;;8.38;4.85;;;;;;;13.09;88.42;99926.63;345042;28;1506;-78
2022/11/10 00:32:36;;;;;;;9.43;4.70;;;;;;;13.06;88.61;99926.75;344925;28;1234;-78
2022/11/10 00:32:48;;;;;;;8.35;4.88;;;;;;;13.03;88.56;99926.84;345258;28;1162;-78
2022/11/10 00:33:00;;;;;;;10.07;5.05;;;;;;;13.06;88.70;99926.75;345175;28;1176;-79
2022/11/10 00:33:12;;;;;;;9.20;4.90;;;;;;;13.04;88.72;99922.47;345052;28;1054;-79
2022/11/10 00:33:24;;;;;;;7.75;4.90;;;;;;;13.03;88.65;99924.25;344018;28;950;-79
2022/11/10 00:33:38;;;;;;;7.97;5.00;;;;;;;13.03;88.78;99921.63;343716;28;1854;-78
2022/11/10 00:33:50;;;;;;;8.95;5.10;;;;;;;13.04;88.77;99923.34;344258;28;1386;-78
2022/11/10 00:34:02;;;;;;;8.80;5.05;;;;;;;13.07;88.78;99925.81;344034;28;741;-78
2022/11/10 00:34:16;;;;;;;7.97;4.93;;;;;;;13.04;88.70;99928.56;342033;28;1761;-77
2022/11/10 00:34:27;;;;;;;5.78;4.70;;;;;;;13.08;88.74;99927.53;339989;29;1279;-78
2022/11/10 00:34:39;;;;;;;6.45;4.70;;;;;;;13.11;88.95;99924.78;341034;29;1230;-77
2022/11/10 00:34:52;;;;;;;6.25;4.50;;;;;;;13.11;88.55;99930.00;341193;29;1105;-77
2022/11/10 00:35:04;;;;;;;6.97;4.72;;;;;;;13.12;88.60;99925.63;341471;29;1190;-78
2022/11/10 00:35:16;;;;;;;8.32;4.80;;;;;;;13.14;88.47;99919.47;341044;28;1417;-76
2022/11/10 00:35:28;;;;;;;9.48;4.90;;;;;;;13.19;88.30;99927.97;342018;28;1894;-78
2022/11/10 00:35:40;;;;;;;10.75;5.03;;;;;;;13.19;88.26;99922.72;342908;28;718;-78
2022/11/10 00:35:52;;;;;;;11.60;5.10;;;;;;;13.17;88.13;99932.38;342960;28;1063;-78
2022/11/10 00:36:04;;;;;;;9.85;4.95;;;;;;;13.14;88.29;99923.84;342869;28;1507;-78
2022/11/10 00:36:16;;;;;;;7.82;4.60;;;;;;;13.13;88.29;99928.19;341807;28;1858;-78
2022/11/10 00:36:28;;;;;;;7.05;4.47;;;;;;;13.13;88.21;99925.59;342679;28;1581;-77
2022/11/10 00:36:43;;;;;;;8.32;4.53;;;;;;;13.08;88.51;99922.31;342631;28;1163;-79
2022/11/10 00:36:55;;;;;;;8.23;4.80;;;;;;;13.08;88.31;99922.31;342815;28;1092;-79
2022/11/10 00:37:07;;;;;;;8.05;4.90;;;;;;;12.99;88.47;99930.50;342571;28;1126;-78
2022/11/10 00:37:19;;;;;;;8.13;5.05;;;;;;;13.03;88.64;99926.84;342363;28;1613;-78
2022/11/10 00:37:31;;;;;;;8.55;4.95;;;;;;;13.08;88.63;99924.94;343596;28;1121;-76
2022/11/10 00:37:43;;;;;;;8.07;5.00;;;;;;;13.08;88.47;99924.94;342494;28;1145;-78
2022/11/10 00:37:55;;;;;;;7.57;5.03;;;;;;;13.06;88.54;99931.97;342492;28;1048;-77
2022/11/10 00:38:07;;;;;;;7.85;5.22;;;;;;;13.07;88.99;99923.22;342332;28;1035;-79
2022/11/10 00:38:18;;;;;;;7.75;5.22;;;;;;;13.10;88.48;99923.09;342833;28;1469;-78
2022/11/10 00:38:31;;;;;;;7.32;4.88;;;;;;;13.10;88.49;99932.69;342667;28;1140;-78
2022/11/10 00:38:42;;;;;;;9.15;4.68;;;;;;;13.12;88.63;99931.72;342664;28;1066;-78
2022/11/10 00:38:54;;;;;;;9.98;4.70;;;;;;;13.13;88.49;99922.97;342714;28;1087;-78
2022/11/10 00:39:06;;;;;;;10.90;5.00;;;;;;;13.14;88.33;99923.84;342249;28;1092;-78
2022/11/10 00:39:18;;;;;;;11.07;5.28;;;;;;;13.14;88.55;99935.13;342468;28;1188;-79
2022/11/10 00:39:30;;;;;;;10.25;5.10;;;;;;;13.14;88.49;99927.31;342803;28;1036;-79
2022/11/10 00:39:42;;;;;;;11.85;5.07;;;;;;;13.15;88.21;99926.38;342872;28;726;-78
2022/11/10 00:41:07;;;;;;;7.93;5.22;;;;;;;13.19;87.96;99927.97;340964;29;1033;-77
2022/11/10 00:41:54;;;;;;;8.40;5.35;;;;;;;13.14;88.01;99929.91;341123;28;1525;-77
2022/11/10 00:42:38;;;;;;;9.73;5.32;;;;;;;13.09;88.39;99926.63;338590;29;1862;-78
2022/11/10 00:42:51;;;;;;;10.98;5.22;;;;;;;13.09;88.55;99931.84;338239;29;1218;-79
2022/11/10 00:43:03;;;;;;;10.43;5.20;;;;;;;13.13;88.49;99928.19;338481;29;1050;-78
2022/11/10 00:43:15;;;;;;;9.52;5.45;;;;;;;13.12;88.44;99931.72;338782;29;740;-77
2022/11/10 00:43:28;;;;;;;9.63;5.45;;;;;;;13.12;88.46;99930.84;337382;29;1023;-80
2022/11/10 00:43:40;;;;;;;10.77;5.32;;;;;;;13.10;88.27;99930.94;338072;29;1077;-77
2022/11/10 00:43:52;;;;;;;9.63;5.18;;;;;;;13.12;88.30;99931.72;338556;29;1064;-78
2022/11/10 00:44:04;;;;;;;9.03;5.20;;;;;;;13.14;88.23;99935.13;338334;29;1208;-79
2022/11/10 00:44:16;;;;;;;8.93;5.35;;;;;;;13.15;88.50;99934.19;337392;29;1055;-79
2022/11/10 00:44:28;;;;;;;9.75;5.38;;;;;;;13.21;88.24;99937.50;337661;29;1164;-78
2022/11/10 00:44:40;;;;;;;12.07;5.65;;;;;;;13.18;88.08;99934.09;336546;29;2304;-76
2022/11/10 00:44:52;;;;;;;13.13;5.40;;;;;;;13.10;88.07;99941.38;336073;29;1099;-78
2022/11/10 00:45:05;;;;;;;12.60;5.30;;;;;;;13.12;88.49;99936.06;335489;29;1112;-79
2022/11/10 00:45:17;;;;;;;12.00;5.40;;;;;;;13.15;88.28;99928.97;336069;29;1177;-79
2022/11/10 00:45:29;;;;;;;10.88;5.65;;;;;;;13.14;88.19;99940.34;337689;29;1180;-79
2022/11/10 00:45:42;;;;;;;10.07;5.35;;;;;;;13.16;88.17;99938.53;338870;28;1646;-78
2022/11/10 00:45:55;;;;;;;9.23;5.20;;;;;;;13.15;88.22;99939.44;339845;29;1090;-79
2022/11/10 00:46:07;;;;;;;9.25;5.13;;;;;;;13.17;88.06;99939.38;340324;29;1036;-79
2022/11/10 00:46:19;;;;;;;9.73;4.93;;;;;;;13.18;88.05;99941.09;340649;29;1072;-79
2022/11/10 00:46:31;;;;;;;9.50;5.00;;;;;;;13.17;88.05;99940.22;341218;29;1057;-80
2022/11/10 00:46:43;;;;;;;10.88;5.25;;;;;;;13.15;88.04;99942.03;340007;29;2032;-79
2022/11/10 00:46:55;;;;;;;10.75;5.40;;;;;;;13.14;87.99;99940.34;338177;29;1108;-79
2022/11/10 00:47:07;;;;;;;10.27;5.45;;;;;;;13.15;88.19;99942.03;338782;29;1048;-79
2022/11/10 00:47:19;;;;;;;8.98;5.47;;;;;;;13.09;88.12;99942.28;338597;29;1251;-79
2022/11/10 00:47:30;;;;;;;10.45;5.53;;;;;;;13.12;88.03;99939.56;338243;29;1099;-79
2022/11/10 00:47:44;;;;;;;9.73;5.18;;;;;;;13.14;87.85;99939.50;337520;29;1073;-79
2022/11/10 00:47:56;;;;;;;9.02;5.07;;;;;;;13.12;88.16;99950.00;338539;29;1069;-79
2022/11/10 00:48:08;;;;;;;10.23;5.40;;;;;;;13.10;88.26;99944.00;338606;29;1186;-79
2022/11/10 00:48:20;;;;;;;8.90;5.20;;;;;;;13.06;88.11;99945.00;338398;29;2263;-78
2022/11/10 00:48:32;;;;;;;8.40;5.10;;;;;;;13.10;88.47;99944.00;337372;29;978;-79
2022/11/10 00:48:44;;;;;;;7.97;5.00;;;;;;;13.12;88.39;99952.63;337432;29;1342;-79
2022/11/10 00:48:56;;;;;;;11.13;5.60;;;;;;;13.11;88.21;99945.69;337699;29;1761;-79
2022/11/10 00:49:08;;;;;;;12.00;5.75;;;;;;;13.10;88.26;99953.56;340971;29;1171;-78
2022/11/10 00:49:20;;;;;;;10.93;5.88;;;;;;;13.10;88.17;99951.81;342316;28;1258;-79
2022/11/10 00:49:32;;;;;;;11.20;5.57;;;;;;;13.07;88.35;99949.31;341317;29;1188;-79
2022/11/10 00:49:44;;;;;;;10.57;5.18;;;;;;;13.04;88.61;99952.06;340789;29;1592;-79
2022/11/10 00:49:56;;;;;;;9.80;4.95;;;;;;;13.06;88.60;99945.00;340569;29;2003;-80
2022/11/10 00:50:08;;;;;;;8.10;4.82;;;;;;;13.09;88.57;99946.66;341243;29;1240;-80
2022/11/10 00:50:20;;;;;;;10.00;4.90;;;;;;;13.02;88.30;99951.25;341704;28;1094;-79
2022/11/10 00:50:32;;;;;;;9.73;4.85;;;;;;;13.00;88.70;99947.88;341643;29;1168;-79
2022/11/10 00:50:44;;;;;;;9.57;5.32;;;;;;;13.04;88.63;99949.44;341366;29;1080;-79
2022/11/10 00:50:56;;;;;;;9.25;5.55;;;;;;;13.04;88.75;99949.44;339773;29;1220;-78
2022/11/10 00:51:22;;;;;;;7.72;5.28;;;;;;;13.09;88.44;99950.09;339744;29;1178;-78
2022/11/10 00:51:34;;;;;;;8.80;5.07;;;;;;;13.10;88.34;99949.22;340293;29;1586;-79
2022/11/10 00:51:46;;;;;;;10.23;5.30;;;;;;;13.03;88.22;99952.94;341394;29;1168;-79
2022/11/10 00:51:58;;;;;;;10.38;5.10;;;;;;;13.05;88.40;99950.28;340076;29;1766;-79
2022/11/10 00:52:09;;;;;;;10.20;5.07;;;;;;;13.10;88.25;99953.56;339436;29;1143;-79
2022/11/10 00:52:21;;;;;;;10.70;5.07;;;;;;;13.11;88.35;99950.91;341283;29;1449;-79
2022/11/10 00:52:33;;;;;;;11.93;5.32;;;;;;;13.10;88.24;99948.34;341721;28;1020;-79
2022/11/10 00:52:45;;;;;;;11.82;5.32;;;;;;;13.09;88.18;99947.50;342615;28;974;-78
2022/11/10 00:52:57;;;;;;;10.02;5.05;;;;;;;13.06;88.26;99957.19;343308;28;745;-79
2022/11/10 00:53:09;;;;;;;10.60;5.00;;;;;;;13.06;88.25;99958.06;343862;28;1024;-78
2022/11/10 00:53:21;;;;;;;9.13;4.90;;;;;;;13.03;88.46;99957.31;343767;28;1246;-78
2022/11/10 00:53:34;;;;;;;8.07;4.65;;;;;;;13.06;88.41;99957.19;343858;28;1155;-78
2022/11/10 00:53:46;;;;;;;6.68;4.68;;;;;;;13.05;88.57;99955.50;342849;28;1039;-79
2022/11/10 00:53:58;;;;;;;7.28;5.05;;;;;;;13.08;88.45;99956.25;342853;28;1057;-78
2022/11/10 00:54:10;;;;;;;7.75;5.22;;;;;;;13.08;88.57;99956.25;343767;28;1053;-79
2022/11/10 00:54:22;;;;;;;7.88;4.93;;;;;;;13.06;88.18;99963.28;343861;28;1245;-78
2022/11/10 00:54:34;;;;;;;7.40;4.80;;;;;;;13.06;88.45;99965.91;343330;28;1343;-79
2022/11/10 00:54:46;;;;;;;6.90;4.60;;;;;;;13.08;88.46;99961.47;343500;28;753;-79
2022/11/10 00:54:58;;;;;;;7.82;4.57;;;;;;;13.09;88.20;99957.94;342927;28;1069;-79
2022/11/10 00:55:10;;;;;;;7.93;4.50;;;;;;;13.10;88.14;99959.66;342129;28;1652;-78
2022/11/10 00:55:22;;;;;;;8.80;4.78;;;;;;;13.11;88.17;99961.34;341054;28;1305;-78
2022/11/10 00:55:37;;;;;;;10.02;4.90;;;;;;;13.12;88.18;99954.34;341914;28;1263;-79
2022/11/10 00:55:49;;;;;;;8.77;4.63;;;;;;;13.07;87.96;99962.34;340831;29;901;-78
2022/11/10 00:56:01;;;;;;;8.10;4.50;;;;;;;13.07;88.08;99959.75;340153;29;735;-79
2022/11/10 00:56:13;;;;;;;10.50;4.63;;;;;;;13.08;88.43;99952.75;339760;29;1280;-78
2022/11/10 00:56:25;;;;;;;10.45;4.75;;;;;;;13.11;88.41;99956.13;339962;29;1073;-79
2022/11/10 00:56:37;;;;;;;8.40;4.78;;;;;;;13.12;88.17;99957.81;341218;28;1686;-79
2022/11/10 00:56:49;;;;;;;8.20;4.85;;;;;;;13.03;88.32;99955.56;339428;29;1217;-77
2022/11/10 00:57:01;;;;;;;9.50;5.03;;;;;;;13.05;88.34;99955.50;338903;29;1540;-78
2022/11/10 00:57:13;;;;;;;10.25;5.00;;;;;;;13.07;88.38;99958.91;339067;29;1903;-79
2022/11/10 00:57:25;;;;;;;9.98;4.72;;;;;;;13.04;88.49;99959.88;339219;29;1145;-79
2022/11/10 00:57:37;;;;;;;9.30;4.50;;;;;;;13.06;88.36;99958.06;340340;29;1065;-79
2022/11/10 00:57:48;;;;;;;7.78;4.43;;;;;;;13.03;88.39;99963.38;340092;29;1086;-79
2022/11/10 00:58:00;;;;;;;9.40;4.65;;;;;;;13.04;88.42;99954.66;341858;28;1219;-80
2022/11/10 00:58:12;;;;;;;9.27;4.70;;;;;;;13.04;88.33;99954.66;344022;28;1138;-78
2022/11/10 00:58:24;;;;;;;8.82;4.70;;;;;;;13.07;88.40;99958.91;343960;28;1087;-78
2022/11/10 00:58:36;;;;;;;7.25;4.53;;;;;;;13.04;88.26;99959.88;343784;28;1261;-79
2022/11/10 00:58:48;;;;;;;8.27;4.47;;;;;;;13.05;88.28;99952.91;343265;28;1975;-78
2022/11/10 00:59:00;;;;;;;7.90;4.55;;;;;;;13.06;88.41;99963.28;343951;28;1062;-78
2022/11/10 00:59:12;;;;;;;8.30;4.55;;;;;;;13.05;88.26;99956.34;343713;28;1323;-79
2022/11/10 00:59:24;;;;;;;9.18;4.90;;;;;;;13.00;88.26;99966.13;345112;28;1221;-79
2022/11/10 00:59:36;;;;;;;8.45;5.00;;;;;;;12.98;88.48;99955.75;345201;28;1044;-79
2022/11/10 00:59:48;;;;;;;7.72;5.05;;;;;;;13.03;88.22;99963.38;345484;28;871;-79
2022/11/10 00:59:59;;;;;;;6.60;4.95;;;;;;;13.05;88.40;99960.72;345304;28;1103;-79
2022/11/10 01:00:11;;;;;;;7.82;4.88;;;;;;;13.07;88.37;99958.91;345309;28;1341;-78
2022/11/10 01:00:24;;;;;;;7.53;4.72;;;;;;;13.08;88.38;99963.19;343119;28;1461;-79
2022/11/10 01:00:35;;;;;;;7.20;4.70;;;;;;;13.08;88.39;99961.47;342799;28;1028;-79
2022/11/10 01:00:47;;;;;;;6.57;4.63;;;;;;;13.09;88.23;99957.94;342899;28;1027;-79
2022/11/10 01:01:01;;;;;;;6.78;4.80;;;;;;;13.11;88.21;99960.50;344082;28;1038;-79
2022/11/10 01:01:15;;;;;;;7.13;4.93;;;;;;;13.08;88.24;99958.84;342817;28;842;-78
2022/11/10 01:01:27;;;;;;;6.45;4.60;;;;;;;13.08;88.40;99961.47;342455;28;1517;-76
2022/11/10 01:01:39;;;;;;;6.75;4.60;;;;;;;13.09;88.31;99960.53;342403;28;1795;-79
2022/11/10 01:01:51;;;;;;;7.80;4.60;;;;;;;13.07;88.05;99961.53;342261;28;1863;-78
2022/11/10 01:02:03;;;;;;;8.70;4.60;;;;;;;13.06;88.36;99959.81;342624;28;1199;-78
2022/11/10 01:02:15;;;;;;;7.95;4.65;;;;;;;13.07;88.13;99969.34;342936;28;1201;-79
2022/11/10 01:02:27;;;;;;;7.45;4.78;;;;;;;13.07;88.42;99970.19;341486;28;1074;-79
2022/11/10 01:02:39;;;;;;;8.75;4.75;;;;;;;13.03;88.38;99963.38;341536;29;1044;-79
2022/11/10 01:02:52;;;;;;;9.43;4.88;;;;;;;13.04;88.45;99970.31;341527;29;1194;-78
2022/11/10 01:03:03;;;;;;;8.77;4.80;;;;;;;13.04;88.37;99961.63;341455;28;2112;-79
2022/11/10 01:03:16;;;;;;;8.00;4.60;;;;;;;13.02;88.43;99963.44;341415;29;1064;-79
2022/11/10 01:03:29;;;;;;;8.02;4.60;;;;;;;12.98;88.50;99962.72;342669;28;1158;-79
2022/11/10 01:03:41;;;;;;;7.72;4.85;;;;;;;12.97;88.56;99958.41;342473;28;1025;-79
2022/11/10 01:03:54;;;;;;;9.02;5.22;;;;;;;12.96;88.79;99967.16;341298;29;1171;-79
2022/11/10 01:04:06;;;;;;;10.98;5.20;;;;;;;12.87;88.87;99967.47;341854;28;1239;-79
2022/11/10 01:04:18;;;;;;;11.40;5.20;;;;;;;12.91;88.68;99966.47;342477;28;1569;-79
2022/11/10 01:04:30;;;;;;;11.32;5.38;;;;;;;12.94;88.63;99966.34;342878;28;1055;-78
2022/11/10 01:04:41;;;;;;;10.55;5.55;;;;;;;12.91;88.82;99964.69;342178;28;2084;-78
2022/11/10 01:04:53;;;;;;;9.60;5.00;;;;;;;12.91;88.85;99964.69;343572;28;748;-79
2022/11/10 01:05:06;;;;;;;8.30;4.68;;;;;;;12.89;88.90;99965.66;343702;28;1459;-78
2022/11/10 01:05:18;;;;;;;6.95;4.80;;;;;;;12.88;88.96;99963.97;343815;28;2328;-79